createdAt,value
2023-03-11T00:01:46.174Z,2.95
2023-03-11T00:04:14.022Z,3.75
2023-03-11T00:06:41.866Z,3.10
2023-03-11T00:09:09.877Z,10.90
2023-03-11T00:11:37.691Z,5.35
2023-03-11T00:14:06.858Z,2.33
2023-03-11T00:16:34.702Z,3.38
2023-03-11T00:19:02.478Z,4.78
2023-03-11T00:21:30.279Z,4.57
2023-03-11T00:24:01.034Z,2.70
2023-03-11T00:26:28.860Z,3.35
2023-03-11T00:28:56.700Z,3.67
2023-03-11T00:31:26.945Z,7.05
2023-03-11T00:33:57.239Z,4.88
2023-03-11T00:36:31.523Z,5.25
2023-03-11T00:39:00.323Z,4.82
2023-03-11T00:41:28.351Z,5.40
2023-03-11T00:43:56.332Z,2.80
2023-03-11T00:46:25.593Z,4.72
2023-03-11T00:48:53.529Z,4.80
2023-03-11T00:51:21.620Z,4.85
2023-03-11T00:53:49.387Z,4.57
2023-03-11T00:56:17.746Z,4.15
2023-03-11T00:58:46.092Z,4.15
2023-03-11T01:01:17.099Z,4.35
2023-03-11T01:03:46.552Z,4.65
2023-03-11T01:06:14.735Z,7.55
2023-03-11T01:08:42.971Z,9.90
2023-03-11T01:11:10.789Z,4.75
2023-03-11T01:13:40.159Z,3.63
2023-03-11T01:16:09.348Z,3.40
2023-03-11T01:18:37.254Z,4.50
2023-03-11T01:21:06.763Z,5.20
2023-03-11T01:23:34.647Z,2.80
2023-03-11T01:26:02.442Z,4.18
2023-03-11T01:28:30.164Z,5.47
2023-03-11T01:30:57.971Z,4.03
2023-03-11T01:33:25.868Z,6.40
2023-03-11T01:35:53.877Z,4.05
2023-03-11T01:38:23.312Z,4.78
2023-03-11T01:40:52.849Z,5.78
2023-03-11T01:43:48.030Z,6.20
2023-03-11T01:46:18.329Z,4.13
2023-03-11T01:48:48.313Z,4.57
2023-03-11T01:51:18.480Z,5.30
2023-03-11T01:53:47.906Z,5.45
2023-03-11T01:56:15.945Z,5.18
2023-03-11T01:58:46.784Z,7.53
2023-03-11T02:01:14.857Z,8.30
2023-03-11T02:03:43.621Z,5.57
2023-03-11T02:06:15.470Z,6.28
2023-03-11T02:08:45.041Z,9.05
2023-03-11T02:11:18.207Z,4.85
2023-03-11T02:13:47.438Z,6.75
2023-03-11T02:16:15.471Z,5.97
2023-03-11T02:18:44.694Z,5.47
2023-03-11T02:21:23.676Z,6.53
2023-03-11T02:23:59.885Z,6.13
2023-03-11T02:26:36.134Z,5.07
2023-03-11T02:29:07.580Z,5.63
2023-03-11T02:31:38.209Z,8.98
2023-03-11T02:34:11.078Z,5.68
2023-03-11T02:36:40.273Z,5.90
2023-03-11T02:39:09.256Z,5.75
2023-03-11T02:41:40.466Z,8.85
2023-03-11T02:44:12.560Z,5.63
2023-03-11T02:49:10.682Z,5.05
2023-03-11T02:51:38.525Z,4.57
2023-03-11T02:54:07.267Z,4.63
2023-03-11T02:56:35.090Z,7.22
2023-03-11T02:59:02.870Z,10.07
2023-03-11T03:01:32.211Z,7.05
2023-03-11T03:04:00.062Z,6.97
2023-03-11T03:06:28.711Z,6.13
2023-03-11T03:08:57.120Z,5.35
2023-03-11T03:11:24.934Z,5.65
2023-03-11T03:13:52.680Z,5.22
2023-03-11T03:16:20.512Z,7.25
2023-03-11T03:18:49.764Z,9.60
2023-03-11T03:21:17.583Z,6.53
2023-03-11T03:23:45.393Z,6.70
2023-03-11T03:26:14.785Z,9.18
2023-03-11T03:28:42.714Z,10.05
2023-03-11T03:31:12.023Z,8.82
2023-03-11T03:33:39.827Z,9.05
2023-03-11T03:36:11.816Z,9.32
2023-03-11T03:41:07.488Z,8.85
2023-03-11T03:43:35.357Z,9.80
2023-03-11T03:46:05.952Z,11.15
2023-03-11T03:48:34.328Z,36.50
2023-03-11T03:51:05.185Z,9.10
2023-03-11T03:53:35.249Z,10.73
2023-03-11T03:56:04.129Z,9.93
2023-03-11T03:58:32.032Z,10.95
2023-03-11T04:01:00.268Z,9.20
2023-03-11T04:03:29.453Z,8.77
2023-03-11T04:06:07.056Z,9.75
2023-03-11T04:08:36.520Z,11.27
2023-03-11T04:11:04.616Z,10.00
2023-03-11T04:13:32.412Z,10.25
2023-03-11T04:16:00.385Z,9.45
2023-03-11T04:18:28.355Z,10.98
2023-03-11T04:20:56.109Z,9.95
2023-03-11T04:23:23.929Z,11.60
2023-03-11T04:25:53.118Z,10.27
2023-03-11T04:28:20.871Z,10.98
2023-03-11T04:30:48.708Z,11.18
2023-03-11T04:33:16.541Z,10.38
2023-03-11T04:35:44.389Z,9.32
2023-03-11T04:38:12.190Z,10.52
2023-03-11T04:40:40.579Z,12.63
2023-03-11T04:43:10.115Z,9.63
2023-03-11T04:45:39.566Z,14.07
2023-03-11T04:48:07.597Z,9.57
2023-03-11T04:50:35.573Z,9.82
2023-03-11T04:53:03.551Z,10.88
2023-03-11T04:55:31.297Z,9.35
2023-03-11T04:57:59.117Z,13.15
2023-03-11T05:00:28.563Z,12.90
2023-03-11T05:02:56.372Z,13.60
2023-03-11T05:05:24.279Z,13.75
2023-03-11T05:07:53.609Z,13.90
2023-03-11T05:10:22.492Z,12.80
2023-03-11T05:12:50.500Z,14.18
2023-03-11T05:15:18.769Z,16.48
2023-03-11T05:17:48.398Z,15.38
2023-03-11T05:20:16.602Z,13.82
2023-03-11T05:22:44.481Z,13.95
2023-03-11T05:25:12.396Z,16.33
2023-03-11T05:27:40.250Z,14.30
2023-03-11T05:30:10.189Z,13.88
2023-03-11T05:32:38.043Z,12.40
2023-03-11T05:35:08.104Z,12.35
2023-03-11T05:37:39.002Z,12.27
2023-03-11T05:40:08.859Z,14.88
2023-03-11T05:42:37.054Z,16.08
2023-03-11T05:45:05.351Z,15.80
2023-03-11T05:47:33.181Z,14.73
2023-03-11T05:50:01.057Z,13.70
2023-03-11T05:52:32.701Z,15.45
2023-03-11T05:55:00.733Z,13.73
2023-03-11T05:57:28.876Z,14.68
2023-03-11T05:59:56.898Z,15.23
2023-03-11T06:02:24.675Z,16.27
2023-03-11T06:04:52.658Z,15.85
2023-03-11T06:07:20.487Z,14.55
2023-03-11T06:09:50.974Z,14.55
2023-03-11T06:12:18.935Z,16.73
2023-03-11T06:14:46.705Z,17.70
2023-03-11T06:17:14.479Z,12.55
2023-03-11T06:19:42.425Z,14.60
2023-03-11T06:22:10.289Z,13.43
2023-03-11T06:24:38.302Z,13.38
2023-03-11T06:27:09.230Z,14.73
2023-03-11T06:29:37.052Z,15.73
2023-03-11T06:32:05.165Z,14.50
2023-03-11T06:34:33.021Z,13.48
2023-03-11T06:37:01.187Z,14.90
2023-03-11T06:39:29.013Z,14.98
2023-03-11T06:41:56.873Z,16.17
2023-03-11T06:44:26.257Z,16.02
2023-03-11T06:46:54.047Z,16.02
2023-03-11T06:49:21.816Z,18.80
2023-03-11T06:51:49.524Z,15.23
2023-03-11T06:54:17.353Z,17.35
2023-03-11T06:56:45.240Z,18.75
2023-03-11T06:59:13.071Z,16.45
2023-03-11T07:01:42.194Z,18.65
2023-03-11T07:04:11.570Z,24.15
2023-03-11T07:06:39.379Z,20.63
2023-03-11T07:09:07.268Z,18.25
2023-03-11T07:11:35.021Z,13.27
2023-03-11T07:14:02.874Z,9.35
2023-03-11T07:16:31.909Z,8.55
2023-03-11T07:19:03.276Z,11.82
2023-03-11T07:21:32.637Z,7.72
2023-03-11T07:24:02.025Z,9.95
2023-03-11T07:26:31.656Z,7.35
2023-03-11T07:29:00.125Z,8.50
2023-03-11T07:31:30.327Z,4.10
2023-03-11T07:33:59.556Z,5.05
2023-03-11T07:36:30.002Z,3.97
2023-03-11T07:38:59.710Z,7.18
2023-03-11T07:41:28.306Z,3.63
2023-03-11T07:43:59.390Z,4.65
2023-03-11T07:46:29.431Z,7.03
2023-03-11T07:48:58.142Z,5.60
2023-03-11T07:51:29.083Z,3.28
2023-03-11T07:53:58.820Z,5.88
2023-03-11T07:56:27.928Z,2.67
2023-03-11T07:58:55.692Z,5.47
2023-03-11T08:01:25.251Z,3.22
2023-03-11T08:03:57.049Z,3.53
2023-03-11T08:06:27.684Z,3.00
2023-03-11T08:08:57.037Z,5.13
2023-03-11T08:11:25.280Z,4.07
2023-03-11T08:13:53.715Z,4.70
2023-03-11T08:16:23.113Z,4.40
2023-03-11T08:18:52.551Z,2.60
2023-03-11T08:21:22.684Z,3.10
2023-03-11T08:23:50.421Z,4.13
2023-03-11T08:26:21.862Z,3.95
2023-03-11T08:28:50.153Z,2.78
2023-03-11T08:31:19.849Z,2.88
2023-03-11T08:33:50.214Z,3.67
2023-03-11T08:36:18.519Z,6.43
2023-03-11T08:38:46.462Z,7.35
2023-03-11T08:41:14.788Z,7.63
2023-03-11T08:43:44.580Z,5.40
2023-03-11T08:46:18.905Z,5.47
2023-03-11T08:48:46.778Z,7.55
2023-03-11T08:51:14.738Z,6.32
2023-03-11T08:53:42.667Z,6.20
2023-03-11T08:56:10.484Z,6.63
2023-03-11T08:58:38.616Z,5.65
2023-03-11T09:01:09.173Z,8.05
2023-03-11T09:03:38.013Z,4.35
2023-03-11T09:06:08.574Z,5.25
2023-03-11T09:08:36.835Z,9.05
2023-03-11T09:11:05.543Z,9.85
2023-03-11T09:13:33.313Z,11.00
2023-03-11T09:16:01.356Z,11.00
2023-03-11T09:18:30.496Z,7.18
2023-03-11T09:20:59.197Z,6.47
2023-03-11T09:23:27.212Z,9.05
2023-03-11T09:25:55.026Z,12.07
2023-03-11T09:28:22.802Z,9.43
2023-03-11T09:30:50.580Z,10.70
2023-03-11T09:33:18.613Z,24.98
2023-03-11T09:35:47.761Z,10.13
2023-03-11T09:38:15.737Z,9.25
2023-03-11T09:40:58.959Z,8.60
2023-03-11T09:43:40.942Z,10.30
2023-03-11T09:46:27.301Z,12.90
2023-03-11T09:49:00.777Z,13.27
2023-03-11T09:51:34.064Z,13.57
2023-03-11T09:54:05.579Z,9.25
2023-03-11T09:56:37.102Z,10.18
2023-03-11T09:59:09.019Z,9.15
2023-03-11T10:01:42.692Z,10.05
2023-03-11T10:04:14.308Z,8.15
2023-03-11T10:06:46.824Z,10.32
2023-03-11T10:09:30.180Z,13.40
2023-03-11T10:12:10.680Z,11.90
2023-03-11T10:14:49.398Z,11.07
2023-03-11T10:17:32.846Z,12.05
2023-03-11T10:20:07.442Z,13.05
2023-03-11T10:22:45.080Z,9.32
2023-03-11T10:25:17.162Z,10.20
2023-03-11T10:30:24.514Z,10.48
2023-03-11T10:32:58.505Z,9.38
2023-03-11T10:35:33.540Z,10.07
2023-03-11T10:38:11.343Z,10.80
2023-03-11T10:40:41.780Z,9.35
2023-03-11T10:43:14.474Z,12.82
2023-03-11T10:45:44.860Z,9.73
2023-03-11T10:48:14.420Z,11.40
2023-03-11T10:50:50.834Z,13.45
2023-03-11T10:53:21.758Z,8.98
2023-03-11T10:55:51.634Z,10.25
2023-03-11T10:58:21.750Z,10.27
2023-03-11T11:01:02.269Z,11.23
2023-03-11T11:03:30.775Z,8.13
2023-03-11T11:06:02.284Z,6.65
2023-03-11T11:08:32.392Z,9.90
2023-03-11T11:11:01.831Z,7.38
2023-03-11T11:13:32.541Z,7.07
2023-03-11T11:16:02.262Z,7.63
2023-03-11T11:18:34.550Z,6.38
2023-03-11T11:21:06.517Z,9.38
2023-03-11T11:23:41.104Z,6.18
2023-03-11T11:26:17.264Z,6.03
2023-03-11T11:28:45.357Z,6.72
2023-03-11T11:31:23.346Z,8.27
2023-03-11T11:33:53.735Z,6.18
2023-03-11T11:36:24.224Z,4.82
2023-03-11T11:38:54.963Z,7.22
2023-03-11T11:41:25.328Z,8.07
2023-03-11T11:43:55.141Z,5.82
2023-03-11T11:46:30.168Z,8.25
2023-03-11T11:49:09.852Z,5.53
2023-03-11T11:51:42.362Z,5.90
2023-03-11T11:54:18.117Z,6.03
2023-03-11T11:56:46.635Z,4.28
2023-03-11T11:59:19.918Z,5.55
2023-03-11T12:01:59.345Z,5.60
2023-03-11T12:04:49.154Z,4.22
2023-03-11T12:07:28.988Z,5.28
2023-03-11T12:10:22.168Z,6.03
2023-03-11T12:13:06.768Z,5.82
2023-03-11T12:15:40.174Z,3.53
2023-03-11T12:18:18.763Z,6.53
2023-03-11T12:20:53.291Z,5.03
2023-03-11T12:23:27.176Z,5.72
2023-03-11T12:26:06.199Z,5.25
2023-03-11T12:28:43.050Z,8.05
2023-03-11T12:31:13.278Z,12.10
2023-03-11T12:33:43.697Z,6.30
2023-03-11T12:36:24.564Z,3.70
2023-03-11T12:38:55.091Z,4.40
2023-03-11T12:41:33.665Z,5.72
2023-03-11T12:44:04.258Z,6.53
2023-03-11T12:47:11.562Z,6.43
2023-03-11T12:49:41.437Z,5.45
2023-03-11T12:52:30.473Z,10.80
2023-03-11T12:55:25.657Z,6.72
2023-03-11T12:58:02.891Z,10.45
2023-03-11T13:00:48.306Z,6.72
2023-03-11T13:03:33.920Z,7.70
2023-03-11T13:06:13.937Z,5.70
2023-03-11T13:08:47.399Z,8.77
2023-03-11T13:11:35.987Z,6.85
2023-03-11T13:14:28.569Z,7.57
2023-03-11T13:16:57.287Z,6.07
2023-03-11T13:19:49.980Z,6.25
2023-03-11T13:22:44.465Z,6.72
2023-03-11T13:25:34.070Z,6.00
2023-03-11T13:28:29.130Z,7.03
2023-03-11T13:31:11.846Z,7.53
2023-03-11T13:33:51.024Z,6.03
2023-03-11T13:36:33.522Z,4.35
2023-03-11T13:39:34.591Z,8.63
2023-03-11T13:42:04.690Z,5.35
2023-03-11T13:44:36.369Z,6.35
2023-03-11T13:47:10.317Z,6.97
2023-03-11T13:49:43.981Z,5.68
2023-03-11T13:52:16.910Z,5.68
2023-03-11T13:54:49.212Z,5.93
2023-03-11T13:57:35.937Z,6.10
2023-03-11T14:00:17.817Z,5.15
2023-03-11T14:02:51.134Z,3.88
2023-03-11T14:05:24.342Z,5.18
2023-03-11T14:07:52.465Z,7.15
2023-03-11T14:10:23.899Z,3.88
2023-03-11T14:12:52.503Z,3.53
2023-03-11T14:15:24.210Z,16.10
2023-03-11T14:17:55.126Z,10.52
2023-03-11T14:20:25.402Z,4.93
2023-03-11T14:22:55.139Z,4.53
2023-03-11T14:25:27.341Z,4.20
2023-03-11T14:27:58.899Z,5.07
2023-03-11T14:30:28.960Z,4.47
2023-03-11T14:33:00.344Z,3.90
2023-03-11T14:35:28.547Z,4.60
2023-03-11T14:37:56.816Z,3.90
2023-03-11T14:40:27.671Z,6.35
2023-03-11T14:42:58.453Z,5.90
2023-03-11T14:45:29.698Z,6.13
2023-03-11T14:48:05.243Z,5.93
2023-03-11T14:50:35.358Z,6.65
2023-03-11T14:53:06.601Z,5.70
2023-03-11T14:55:40.673Z,5.47
2023-03-11T14:58:16.184Z,5.18
2023-03-11T15:00:50.088Z,7.47
2023-03-11T15:03:24.548Z,6.93
2023-03-11T15:05:55.999Z,7.55
2023-03-11T15:08:27.253Z,4.47
2023-03-11T15:11:18.868Z,7.83
2023-03-11T15:13:50.673Z,8.07
2023-03-11T15:16:29.948Z,5.63
2023-03-11T15:19:01.736Z,5.53
2023-03-11T15:21:30.866Z,5.20
2023-03-11T15:24:04.952Z,4.95
2023-03-11T15:26:35.572Z,6.32
2023-03-11T15:29:13.074Z,6.38
2023-03-11T15:31:42.651Z,5.20
2023-03-11T15:34:26.225Z,6.45
2023-03-11T15:37:07.603Z,6.13
2023-03-11T15:39:45.095Z,5.10
2023-03-11T15:42:16.485Z,4.47
2023-03-11T15:44:57.997Z,6.03
2023-03-11T15:47:25.884Z,6.38
2023-03-11T15:49:55.088Z,14.93
2023-03-11T15:52:22.975Z,6.18
2023-03-11T15:54:55.764Z,6.32
2023-03-11T15:57:27.826Z,5.85
2023-03-11T15:59:58.163Z,4.75
2023-03-11T16:02:27.660Z,5.90
2023-03-11T16:04:57.582Z,5.93
2023-03-11T16:07:38.828Z,5.80
2023-03-11T16:10:08.524Z,7.45
2023-03-11T16:12:36.590Z,4.55
2023-03-11T16:15:05.074Z,4.80
2023-03-11T16:17:48.606Z,4.65
2023-03-11T16:20:19.482Z,4.90
2023-03-11T16:22:49.110Z,4.20
2023-03-11T16:25:22.853Z,5.22
2023-03-11T16:27:52.440Z,5.20
2023-03-11T16:30:21.168Z,4.75
2023-03-11T16:32:49.148Z,5.35
2023-03-11T16:35:18.855Z,6.95
2023-03-11T16:37:47.105Z,9.52
2023-03-11T16:40:18.370Z,5.93
2023-03-11T16:42:46.653Z,5.50
2023-03-11T16:45:17.267Z,6.65
2023-03-11T16:47:45.342Z,9.38
2023-03-11T16:50:13.424Z,5.60
2023-03-11T16:52:42.701Z,7.13
2023-03-11T16:55:11.085Z,6.65
2023-03-11T16:57:39.524Z,5.95
2023-03-11T17:00:09.808Z,9.38
2023-03-11T17:02:37.701Z,6.20
2023-03-11T17:05:07.004Z,5.90
2023-03-11T17:07:37.570Z,8.60
2023-03-11T17:10:10.060Z,7.78
2023-03-11T17:12:38.387Z,6.05
2023-03-11T17:15:08.464Z,6.35
2023-03-11T17:17:36.636Z,8.75
2023-03-11T17:20:06.200Z,8.68
2023-03-11T17:22:33.983Z,9.07
2023-03-11T17:25:02.107Z,10.10
2023-03-11T17:27:32.605Z,7.80
2023-03-11T17:30:00.965Z,9.05
2023-03-11T17:32:29.292Z,9.90
2023-03-11T17:34:57.141Z,12.82
2023-03-11T17:37:25.179Z,11.27
2023-03-11T17:39:53.255Z,13.80
2023-03-11T17:42:21.263Z,12.27
2023-03-11T17:44:52.184Z,10.63
2023-03-11T17:47:21.402Z,11.98
2023-03-11T17:49:49.844Z,15.98
2023-03-11T17:52:17.661Z,16.05
2023-03-11T17:54:45.873Z,15.38
2023-03-11T17:57:13.665Z,13.60
2023-03-11T17:59:41.447Z,14.48
2023-03-11T18:02:14.383Z,14.95
2023-03-11T18:04:45.928Z,13.35
2023-03-11T18:07:13.740Z,13.45
2023-03-11T18:09:41.728Z,17.13
2023-03-11T18:12:09.680Z,16.63
2023-03-11T18:14:37.772Z,14.05
2023-03-11T18:17:05.926Z,22.05
2023-03-11T18:19:35.420Z,15.30
2023-03-11T18:22:03.850Z,14.52
2023-03-11T18:24:31.684Z,18.55
2023-03-11T18:26:59.686Z,22.08
2023-03-11T18:29:27.502Z,15.63
2023-03-11T18:31:56.275Z,16.50
2023-03-11T18:34:24.104Z,16.40
2023-03-11T18:36:53.247Z,21.50
2023-03-11T18:39:21.152Z,20.75
2023-03-11T18:41:48.969Z,19.88
2023-03-11T18:44:16.842Z,19.90
2023-03-11T18:46:44.715Z,19.02
2023-03-11T18:49:13.926Z,20.15
2023-03-11T18:51:41.983Z,21.17
2023-03-11T18:54:11.585Z,20.17
2023-03-11T18:56:39.456Z,21.83
2023-03-11T18:59:08.532Z,20.05
2023-03-11T19:01:36.317Z,21.02
2023-03-11T19:04:04.154Z,22.83
2023-03-11T19:06:32.036Z,23.45
2023-03-11T19:08:59.862Z,25.48
2023-03-11T19:11:29.430Z,27.90
2023-03-11T19:13:57.301Z,23.73
2023-03-11T19:16:26.731Z,25.73
2023-03-11T19:18:55.660Z,33.85
2023-03-11T19:21:24.235Z,28.83
2023-03-11T19:23:55.117Z,28.13
2023-03-11T19:26:33.746Z,29.88
2023-03-11T19:29:06.855Z,37.38
2023-03-11T19:31:34.729Z,74.97
2023-03-11T19:34:02.917Z,39.80
2023-03-11T19:36:30.688Z,33.60
2023-03-11T19:38:58.519Z,28.40
2023-03-11T19:41:26.325Z,27.63
2023-03-11T19:43:54.273Z,26.60
2023-03-11T19:46:24.163Z,34.35
2023-03-11T19:48:56.531Z,29.92
2023-03-11T19:51:26.668Z,30.33
2023-03-11T19:53:56.266Z,27.23
2023-03-11T19:56:25.485Z,28.15
2023-03-11T19:58:53.258Z,26.35
2023-03-11T20:01:25.342Z,30.80
2023-03-11T20:06:22.730Z,28.65
2023-03-11T20:08:51.405Z,32.45
2023-03-11T20:11:19.227Z,29.05
2023-03-11T20:13:48.659Z,27.23
2023-03-11T20:16:18.859Z,37.88
2023-03-11T20:18:50.118Z,30.15
2023-03-11T20:21:18.771Z,31.23
2023-03-11T20:23:48.816Z,29.88
2023-03-11T20:26:18.546Z,31.85
2023-03-11T20:28:46.435Z,27.92
2023-03-11T20:31:18.026Z,30.33
2023-03-11T20:33:46.337Z,25.65
2023-03-11T20:36:18.008Z,25.83
2023-03-11T20:38:45.789Z,20.92
2023-03-11T20:41:13.558Z,21.95
2023-03-11T20:43:41.796Z,23.35
2023-03-11T20:46:11.608Z,31.08
2023-03-11T20:48:40.218Z,25.83
2023-03-11T20:51:10.339Z,28.88
2023-03-11T20:53:39.986Z,29.10
2023-03-11T20:56:10.457Z,26.58
2023-03-11T20:58:38.563Z,29.80
2023-03-11T21:01:12.711Z,29.40
2023-03-11T21:03:40.886Z,30.75
2023-03-11T21:06:15.303Z,29.25
2023-03-11T21:08:44.683Z,31.13
2023-03-11T21:11:12.898Z,34.00
2023-03-11T21:13:40.973Z,32.70
2023-03-11T21:16:10.114Z,32.65
2023-03-11T21:18:38.330Z,31.52
2023-03-11T21:21:08.477Z,34.10
2023-03-11T21:23:36.408Z,31.55
2023-03-11T21:26:06.747Z,29.00
2023-03-11T21:28:35.298Z,50.47
2023-03-11T21:31:05.721Z,35.78
2023-03-11T21:33:34.172Z,31.42
2023-03-11T21:36:02.414Z,27.60
2023-03-11T21:38:31.892Z,25.77
2023-03-11T21:41:09.042Z,26.20
2023-03-11T21:43:37.594Z,22.88
2023-03-11T21:46:06.205Z,25.65
2023-03-11T21:48:34.686Z,25.08
2023-03-11T21:51:02.833Z,22.85
2023-03-11T21:53:30.712Z,24.38
2023-03-11T21:55:59.709Z,24.98
2023-03-11T21:58:30.248Z,23.48
2023-03-11T22:00:58.151Z,25.20
2023-03-11T22:03:26.186Z,26.65
2023-03-11T22:06:01.022Z,25.33
2023-03-11T22:08:29.128Z,24.10
2023-03-11T22:10:57.327Z,25.10
2023-03-11T22:13:25.325Z,23.90
2023-03-11T22:15:54.810Z,26.52
2023-03-11T22:18:22.648Z,21.98
2023-03-11T22:20:50.822Z,22.88
2023-03-11T22:23:18.566Z,23.77
2023-03-11T22:25:46.302Z,34.45
2023-03-11T22:28:14.818Z,38.65
2023-03-11T22:30:42.972Z,33.97
2023-03-11T22:33:12.153Z,31.27
2023-03-11T22:35:40.059Z,28.08
2023-03-11T22:38:07.994Z,26.48
2023-03-11T22:40:35.819Z,26.33
2023-03-11T22:43:03.627Z,25.48
2023-03-11T22:45:31.383Z,24.73
2023-03-11T22:47:59.238Z,23.92
2023-03-11T22:50:28.591Z,22.30
2023-03-11T22:52:56.463Z,25.08
2023-03-11T22:55:24.327Z,22.92
2023-03-11T22:57:52.771Z,23.45
2023-03-11T23:00:23.172Z,24.50
2023-03-11T23:02:55.537Z,24.98
2023-03-11T23:05:24.330Z,23.15
2023-03-11T23:07:53.638Z,26.05
2023-03-11T23:10:21.720Z,23.20
2023-03-11T23:12:49.777Z,24.45
2023-03-11T23:15:19.803Z,22.88
2023-03-11T23:17:47.657Z,23.40
2023-03-11T23:20:17.263Z,22.15
2023-03-11T23:22:45.100Z,20.25
2023-03-11T23:25:16.961Z,20.15
2023-03-11T23:27:47.007Z,22.02
2023-03-11T23:30:17.250Z,21.13
2023-03-11T23:32:45.672Z,22.05
2023-03-11T23:35:14.220Z,20.58
2023-03-11T23:37:42.211Z,24.10
2023-03-11T23:40:11.498Z,20.50
2023-03-11T23:42:40.644Z,19.40
2023-03-11T23:45:10.340Z,18.02
2023-03-11T23:47:38.162Z,19.92
2023-03-11T23:50:06.956Z,17.95
2023-03-11T23:52:34.936Z,23.33
2023-03-11T23:55:02.964Z,17.98
2023-03-11T23:57:30.742Z,18.52
